Time,TemperatureF,DewpointF,PressureIn,WindDirection,WindDirectionDegrees,WindSpeedMPH,WindSpeedGustMPH,Humidity,HourlyPrecipIn,Conditions,Clouds,dailyrainin,SolarRadiationWatts/m^2,SoftwareType,DateUTC
2013-06-23 00:02:00,56.0,55.0,-100.00,WNW,286,0.0,1.0,95,0.00,,,0.00,1.000000,,2013-06-23 07:02:00,
2013-06-23 00:10:00,56.0,55.0,-100.00,ESE,123,1.0,2.0,95,0.00,,,0.00,1.000000,,2013-06-23 07:10:00,
2013-06-23 00:43:00,56.0,55.0,-100.00,ESE,123,1.0,2.0,95,0.00,,,0.00,1.000000,,2013-06-23 07:43:00,
2013-06-23 00:53:00,56.0,55.0,-100.00,ESE,123,1.0,2.0,95,0.00,,,0.00,1.000000,,2013-06-23 07:53:00,
2013-06-23 01:02:00,56.0,55.0,-100.00,ESE,123,1.0,2.0,95,0.00,,,0.00,1.000000,,2013-06-23 08:02:00,
2013-06-23 01:10:00,56.0,55.0,-100.00,SSE,150,2.0,2.0,96,0.00,,,0.00,1.000000,,2013-06-23 08:10:00,
2013-06-23 01:43:00,56.0,55.0,-100.00,SSE,150,2.0,2.0,96,0.00,,,0.00,1.000000,,2013-06-23 08:43:00,
2013-06-23 01:53:00,56.0,55.0,-100.00,SSE,150,2.0,2.0,96,0.00,,,0.00,1.000000,,2013-06-23 08:53:00,
2013-06-23 02:02:00,56.0,55.0,-100.00,SSE,150,2.0,2.0,96,0.00,,,0.00,1.000000,,2013-06-23 09:02:00,
2013-06-23 02:10:00,56.0,55.0,-100.00,SSE,163,0.0,2.0,96,0.00,,,0.00,1.000000,,2013-06-23 09:10:00,
2013-06-23 02:43:00,56.0,55.0,-100.00,SSE,163,0.0,2.0,96,0.00,,,0.00,1.000000,,2013-06-23 09:43:00,
2013-06-23 02:54:00,56.0,55.0,-100.00,SSE,163,0.0,2.0,96,0.00,,,0.00,1.000000,,2013-06-23 09:54:00,
2013-06-23 03:02:00,56.0,55.0,-100.00,SSE,163,0.0,2.0,96,0.00,,,0.00,1.000000,,2013-06-23 10:02:00,
2013-06-23 03:10:00,55.0,54.0,-100.00,SSE,163,0.0,1.0,97,0.00,,,0.00,1.000000,,2013-06-23 10:10:00,
2013-06-23 03:43:00,55.0,54.0,-100.00,SSE,163,0.0,1.0,97,0.00,,,0.00,1.000000,,2013-06-23 10:43:00,
2013-06-23 03:53:00,55.0,54.0,-100.00,SSE,163,0.0,1.0,97,0.00,,,0.00,1.000000,,2013-06-23 10:53:00,
2013-06-23 04:01:00,55.0,54.0,-100.00,SSE,163,0.0,1.0,97,0.00,,,0.00,1.000000,,2013-06-23 11:01:00,
2013-06-23 04:10:00,55.0,54.0,-100.00,SSE,163,0.0,1.0,98,0.00,,,0.00,1.000000,,2013-06-23 11:10:00,
2013-06-23 04:33:00,55.0,54.0,-100.00,SSE,163,0.0,1.0,98,0.00,,,0.00,1.000000,,2013-06-23 11:33:00,
2013-06-23 04:43:00,55.0,54.0,-100.00,SSE,163,0.0,1.0,98,0.00,,,0.00,1.000000,,2013-06-23 11:43:00,
2013-06-23 04:53:00,55.0,54.0,-100.00,SSE,163,0.0,1.0,98,0.00,,,0.00,1.000000,,2013-06-23 11:53:00,
2013-06-23 05:01:00,55.0,54.0,-100.00,SSE,163,0.0,1.0,98,0.00,,,0.00,1.000000,,2013-06-23 12:01:00,
2013-06-23 05:10:00,55.0,54.0,-100.00,SSE,148,0.0,3.0,98,0.01,,,0.01,1.000000,,2013-06-23 12:10:00,
2013-06-23 05:43:00,55.0,54.0,-100.00,SSE,148,0.0,3.0,98,0.01,,,0.01,1.000000,,2013-06-23 12:43:00,
2013-06-23 05:53:00,55.0,54.0,-100.00,SSE,148,0.0,3.0,98,0.01,,,0.01,1.000000,,2013-06-23 12:53:00,
2013-06-23 06:01:00,55.0,54.0,-100.00,SSE,148,0.0,3.0,98,0.01,,,0.01,1.000000,,2013-06-23 13:01:00,
2013-06-23 06:10:00,56.0,55.0,-100.00,SE,137,0.0,2.0,98,0.01,,,0.02,18.000000,,2013-06-23 13:10:00,
2013-06-23 06:43:00,56.0,55.0,-100.00,SE,137,0.0,2.0,98,0.01,,,0.02,18.000000,,2013-06-23 13:43:00,
2013-06-23 06:54:00,56.0,55.0,-100.00,SE,137,0.0,2.0,98,0.01,,,0.02,18.000000,,2013-06-23 13:54:00,
2013-06-23 07:04:00,56.0,55.0,-100.00,SE,137,0.0,2.0,98,0.01,,,0.02,18.000000,,2013-06-23 14:04:00,
2013-06-23 07:10:00,57.0,56.0,-100.00,SE,137,0.0,2.0,98,0.00,,,0.02,39.000000,,2013-06-23 14:10:00,
2013-06-23 07:44:00,57.0,56.0,-100.00,SE,137,0.0,2.0,98,0.00,,,0.02,39.000000,,2013-06-23 14:44:00,
2013-06-23 07:52:00,57.0,56.0,-100.00,SE,137,0.0,2.0,98,0.00,,,0.02,39.000000,,2013-06-23 14:52:00,
2013-06-23 08:05:00,57.0,56.0,-100.00,SE,137,0.0,2.0,98,0.00,,,0.02,39.000000,,2013-06-23 15:05:00,
2013-06-23 08:10:00,58.0,57.0,-100.00,South,173,1.0,3.0,97,0.01,,,0.03,73.000000,,2013-06-23 15:10:00,
2013-06-23 08:43:00,58.0,57.0,-100.00,South,173,1.0,3.0,97,0.01,,,0.03,73.000000,,2013-06-23 15:43:00,
2013-06-23 08:52:00,58.0,57.0,-100.00,South,173,1.0,3.0,97,0.01,,,0.03,73.000000,,2013-06-23 15:52:00,
2013-06-23 09:05:00,58.0,57.0,-100.00,South,173,1.0,3.0,97,0.01,,,0.03,73.000000,,2013-06-23 16:05:00,
2013-06-23 09:10:00,60.0,59.0,-100.00,ESE,120,0.0,3.0,95,0.00,,,0.03,106.000000,,2013-06-23 16:10:00,
2013-06-23 09:36:00,60.0,59.0,-100.00,ESE,120,0.0,3.0,95,0.00,,,0.03,106.000000,,2013-06-23 16:36:00,
2013-06-23 09:43:00,60.0,59.0,-100.00,ESE,120,0.0,3.0,95,0.00,,,0.03,106.000000,,2013-06-23 16:43:00,
2013-06-23 09:53:00,60.0,59.0,-100.00,ESE,120,0.0,3.0,95,0.00,,,0.03,106.000000,,2013-06-23 16:53:00,
2013-06-23 10:03:00,60.0,59.0,-100.00,ESE,120,0.0,3.0,95,0.00,,,0.03,106.000000,,2013-06-23 17:03:00,
2013-06-23 10:10:00,62.0,59.0,-100.00,SSW,203,1.0,2.0,90,0.01,,,0.04,158.000000,,2013-06-23 17:10:00,
2013-06-23 10:34:00,62.0,59.0,-100.00,SSW,203,1.0,2.0,90,0.01,,,0.04,158.000000,,2013-06-23 17:34:00,
2013-06-23 10:43:00,62.0,59.0,-100.00,SSW,203,1.0,2.0,90,0.01,,,0.04,158.000000,,2013-06-23 17:43:00,
2013-06-23 10:53:00,62.0,59.0,-100.00,SSW,203,1.0,2.0,90,0.01,,,0.04,158.000000,,2013-06-23 17:53:00,
2013-06-23 11:01:00,62.0,59.0,-100.00,SSW,203,1.0,2.0,90,0.01,,,0.04,158.000000,,2013-06-23 18:01:00,
2013-06-23 11:10:00,63.0,60.0,-100.00,SSW,192,1.0,3.0,91,0.00,,,0.04,178.000000,,2013-06-23 18:10:00,
2013-06-23 11:34:00,63.0,60.0,-100.00,SSW,192,1.0,3.0,91,0.00,,,0.04,178.000000,,2013-06-23 18:34:00,
2013-06-23 11:43:00,63.0,60.0,-100.00,SSW,192,1.0,3.0,91,0.00,,,0.04,178.000000,,2013-06-23 18:43:00,
2013-06-23 11:53:00,63.0,60.0,-100.00,SSW,192,1.0,3.0,91,0.00,,,0.04,178.000000,,2013-06-23 18:53:00,
2013-06-23 12:01:00,63.0,60.0,-100.00,SSW,192,1.0,3.0,91,0.00,,,0.04,178.000000,,2013-06-23 19:01:00,
2013-06-23 12:10:00,65.0,61.0,-100.00,West,279,1.0,4.0,87,0.01,,,0.05,278.000000,,2013-06-23 19:10:00,
2013-06-23 12:43:00,65.0,61.0,-100.00,West,279,1.0,4.0,87,0.01,,,0.05,278.000000,,2013-06-23 19:43:00,
2013-06-23 12:53:00,65.0,61.0,-100.00,West,279,1.0,4.0,87,0.01,,,0.05,278.000000,,2013-06-23 19:53:00,
2013-06-23 13:01:00,65.0,61.0,-100.00,West,279,1.0,4.0,87,0.01,,,0.05,278.000000,,2013-06-23 20:01:00,
2013-06-23 13:10:00,65.0,62.0,-100.00,West,280,0.0,2.0,91,0.00,,,0.05,158.000000,,2013-06-23 20:10:00,
2013-06-23 13:42:00,65.0,62.0,-100.00,West,280,0.0,2.0,91,0.00,,,0.05,158.000000,,2013-06-23 20:42:00,
2013-06-23 13:53:00,65.0,62.0,-100.00,West,280,0.0,2.0,91,0.00,,,0.05,158.000000,,2013-06-23 20:53:00,
2013-06-23 14:01:00,65.0,62.0,-100.00,West,280,0.0,2.0,91,0.00,,,0.05,158.000000,,2013-06-23 21:01:00,
2013-06-23 14:10:00,68.0,61.0,-100.00,SSE,155,0.0,3.0,78,0.00,,,0.05,313.000000,,2013-06-23 21:10:00,
2013-06-23 14:44:00,68.0,61.0,-100.00,SSE,155,0.0,3.0,78,0.00,,,0.05,313.000000,,2013-06-23 21:44:00,
2013-06-23 14:52:00,68.0,61.0,-100.00,SSE,155,0.0,3.0,78,0.00,,,0.05,313.000000,,2013-06-23 21:52:00,
2013-06-23 15:01:00,68.0,61.0,-100.00,SSE,155,0.0,3.0,78,0.00,,,0.05,313.000000,,2013-06-23 22:01:00,
2013-06-23 15:10:00,68.0,60.0,-100.00,SE,125,0.0,4.0,76,0.00,,,0.05,306.000000,,2013-06-23 22:10:00,
2013-06-23 15:32:00,68.0,60.0,-100.00,SE,125,0.0,4.0,76,0.00,,,0.05,306.000000,,2013-06-23 22:32:00,
2013-06-23 15:43:00,68.0,60.0,-100.00,SE,125,0.0,4.0,76,0.00,,,0.05,306.000000,,2013-06-23 22:43:00,
2013-06-23 15:53:00,68.0,60.0,-100.00,SE,125,0.0,4.0,76,0.00,,,0.05,306.000000,,2013-06-23 22:53:00,
2013-06-23 16:01:00,68.0,60.0,-100.00,SE,125,0.0,4.0,76,0.00,,,0.05,306.000000,,2013-06-23 23:01:00,
2013-06-23 16:10:00,68.0,61.0,-100.00,NNE,13,1.0,4.0,78,0.00,,,0.05,279.000000,,2013-06-23 23:10:00,
2013-06-23 16:44:00,68.0,61.0,-100.00,NNE,13,1.0,4.0,78,0.00,,,0.05,279.000000,,2013-06-23 23:44:00,
2013-06-23 16:52:00,68.0,61.0,-100.00,NNE,13,1.0,4.0,78,0.00,,,0.05,279.000000,,2013-06-23 23:52:00,
2013-06-23 17:01:00,68.0,61.0,-100.00,NNE,13,1.0,4.0,78,0.00,,,0.05,279.000000,,2013-06-24 00:01:00,
2013-06-23 17:10:00,64.0,61.0,-100.00,SSW,196,2.0,4.0,91,0.01,,,-99.99,160.000000,,2013-06-24 00:10:00,
2013-06-23 17:42:00,64.0,61.0,-100.00,SSW,196,2.0,4.0,91,0.01,,,-99.99,160.000000,,2013-06-24 00:42:00,
2013-06-23 17:52:00,64.0,61.0,-100.00,SSW,196,2.0,4.0,91,0.01,,,-99.99,160.000000,,2013-06-24 00:52:00,
2013-06-23 18:01:00,64.0,61.0,-100.00,SSW,196,2.0,4.0,91,0.01,,,-99.99,160.000000,,2013-06-24 01:01:00,
2013-06-23 18:10:00,65.0,63.0,-100.00,East,100,0.0,4.0,92,0.03,,,0.09,141.000000,,2013-06-24 01:10:00,
2013-06-23 18:32:00,65.0,63.0,-100.00,East,100,0.0,4.0,92,0.03,,,0.09,141.000000,,2013-06-24 01:32:00,
2013-06-23 18:42:00,65.0,63.0,-100.00,East,100,0.0,4.0,92,0.03,,,0.09,141.000000,,2013-06-24 01:42:00,
2013-06-23 18:53:00,65.0,63.0,-100.00,East,100,0.0,4.0,92,0.03,,,0.09,141.000000,,2013-06-24 01:53:00,
2013-06-23 19:01:00,65.0,63.0,-100.00,East,100,0.0,4.0,92,0.03,,,0.09,141.000000,,2013-06-24 02:01:00,
2013-06-23 19:10:00,63.0,60.0,-100.00,NNE,28,2.0,5.0,90,0.00,,,0.09,119.000000,,2013-06-24 02:10:00,
2013-06-23 19:33:00,63.0,60.0,-100.00,NNE,28,2.0,5.0,90,0.00,,,0.09,119.000000,,2013-06-24 02:33:00,
2013-06-23 19:42:00,63.0,60.0,-100.00,NNE,28,2.0,5.0,90,0.00,,,0.09,119.000000,,2013-06-24 02:42:00,
2013-06-23 19:53:00,63.0,60.0,-100.00,NNE,28,2.0,5.0,90,0.00,,,0.09,119.000000,,2013-06-24 02:53:00,
2013-06-23 20:01:00,63.0,60.0,-100.00,NNE,28,2.0,5.0,90,0.00,,,0.09,119.000000,,2013-06-24 03:01:00,
2013-06-23 20:10:00,61.0,60.0,-100.00,West,271,0.0,5.0,95,0.00,,,0.09,45.000000,,2013-06-24 03:10:00,
2013-06-23 20:43:00,61.0,60.0,-100.00,West,271,0.0,5.0,95,0.00,,,0.09,45.000000,,2013-06-24 03:43:00,
2013-06-23 20:53:00,61.0,60.0,-100.00,West,271,0.0,5.0,95,0.00,,,0.09,45.000000,,2013-06-24 03:53:00,
2013-06-23 21:01:00,61.0,60.0,-100.00,West,271,0.0,5.0,95,0.00,,,0.09,45.000000,,2013-06-24 04:01:00,
2013-06-23 21:10:00,59.0,58.0,-100.00,NNE,19,1.0,3.0,97,0.00,,,0.09,5.000000,,2013-06-24 04:10:00,
2013-06-23 21:33:00,59.0,58.0,-100.00,NNE,19,1.0,3.0,97,0.00,,,0.09,5.000000,,2013-06-24 04:33:00,
2013-06-23 21:43:00,59.0,58.0,-100.00,NNE,19,1.0,3.0,97,0.00,,,0.09,5.000000,,2013-06-24 04:43:00,
2013-06-23 21:53:00,59.0,58.0,-100.00,NNE,19,1.0,3.0,97,0.00,,,0.09,5.000000,,2013-06-24 04:53:00,
2013-06-23 22:02:00,59.0,58.0,-100.00,NNE,19,1.0,3.0,97,0.00,,,0.09,5.000000,,2013-06-24 05:02:00,
2013-06-23 22:10:00,59.0,58.0,-100.00,South,169,1.0,2.0,97,0.00,,,0.09,1.000000,,2013-06-24 05:10:00,
2013-06-23 22:46:00,59.0,58.0,-100.00,South,169,1.0,2.0,97,0.00,,,0.09,1.000000,,2013-06-24 05:46:00,
2013-06-23 23:55:00,58.0,57.0,-100.00,South,182,0.0,3.0,98,0.00,,,0.09,1.000000,,2013-06-24 06:55:00,